LFBZLFBY

Guest
Details From LFBZ - Biarritz-Anglet-Bayonne
To LFBY - Dax Seyresse
Flight Number -
Tags generated
Created
Modified
Stats Distance 24 nm / 45 km
Max Altitude 200 ft / 61 m
Waypoints 3
Social Downloads 0
Likes 0
Share VATSIM

Download

Looking for another format? Having issues loading an existing format? Contact us
Advertisement - Login to hide

Notes

Basic altitude profile: - Ascent Rate: 200ft/min - Ascent Speed: 250kts - Cruise Altitude: 300ft - Cruise Speed: 420kts - Descent Rate: 200ft/min - Descent Speed: 250kts Options: - Use NATs: yes - Use PACOTS: yes - Use low airways: yes - Use high airways: yes

Route

LFBZ BTZ LFBY

ID Type Via Altitude Latitude Longitude Leg Dist Tot Dist Heading (true) Name
O LFBZ APT - 0 ft / 0 m 43.46843˚ -1.52332˚ - 0 nm - Biarritz-Anglet-Bayonne
BTZ VOR - 200 ft / 61 m 43.46664˚ -1.51028˚ 0 nm 0 nm 101° / 101° BIARRITZ BAYONNE ANGLET VOR-DM
O LFBY APT - 0 ft / 0 m 43.69000˚ -1.06700˚ 23 nm 24 nm 55° / 55° Dax Seyresse

Altitude Profile

Advertisement - Login to hide

LFBZ

Details ICAO LFBZ (BIQ)
Name Biarritz-Anglet-Bayonne
Region France
Timezone Europe/Paris (UTC+2.0)
Stats Elevation 245 ft / 75 m (AMSL)
Location 43.468427° -1.523322°
Runways 1
Magnetic Variation 0.171° W

METAR

LFBZ 231300Z AUTO 28007KT 9999 FEW047 SCT054 BKN096 19/15 Q1017 TEMPO SCT040TCU

Decode

TAF

TAF LFBZ 231100Z 2312/2412 35008KT CAVOK TEMPO 2312/2317 SCT040TCU BECMG 2320/2322 09005KT PROB40 TEMPO 2403/2409 4000 SHRA BKN040TCU PROB30 TEMPO 2406/2408 4000 TSRA BKN035CB

Decode

Departure Runways

ID Width Length Bearing (true) Bearing (mag) Surface Threshold Offset Overrun Length
09 148 ft / 45 m 7,388 ft / 2,252 m 89.12° 89.29° Asphalt 673 ft / 205 m 0 ft / 0 m
27 148 ft / 45 m 7,388 ft / 2,252 m 269.14° 269.31° Asphalt 0 ft / 0 m 0 ft / 0 m

LFBY

Details ICAO LFBY
Name Dax Seyresse
Region France
Timezone Europe/Paris (UTC+2.0)
Stats Elevation 108 ft / 33 m (AMSL)
Location 43.689995° -1.066997°
Runways 1
Magnetic Variation 0.051° W

METAR

LFBY 231300Z 15004KT 090V260 9000 SCT043 SCT210 25/11 Q1016

Decode

TAF

Not found

Destination Runways

ID Width Length Bearing (true) Bearing (mag) Surface Threshold Offset Overrun Length
08 98 ft / 30 m 2,462 ft / 751 m 74.00° 74.05° Dirt 0 ft / 0 m 0 ft / 0 m
26 98 ft / 30 m 2,462 ft / 751 m 254.00° 254.05° Dirt 0 ft / 0 m 0 ft / 0 m

Popular Alternatives